createdAt,value
2024-02-13T00:00:47.418Z,10.13
2024-02-13T00:03:15.701Z,10.13
2024-02-13T00:05:44.453Z,10.12
2024-02-13T00:08:13.057Z,10.06
2024-02-13T00:10:41.339Z,10.02
2024-02-13T00:13:09.777Z,10.03
2024-02-13T00:15:39.432Z,10.01
2024-02-13T00:18:09.420Z,10.03
2024-02-13T00:20:37.810Z,9.98
2024-02-13T00:23:08.770Z,9.95
2024-02-13T00:25:38.064Z,9.95
2024-02-13T00:28:06.747Z,9.88
2024-02-13T00:30:36.950Z,9.80
2024-02-13T00:33:26.330Z,9.91
2024-02-13T00:36:16.863Z,9.90
2024-02-13T00:38:47.015Z,9.88
2024-02-13T00:41:15.185Z,9.86
2024-02-13T00:43:43.214Z,9.88
2024-02-13T00:46:11.400Z,9.91
2024-02-13T00:48:41.152Z,9.89
2024-02-13T00:51:09.086Z,9.81
2024-02-13T00:53:38.962Z,9.76
2024-02-13T00:56:09.244Z,9.74
2024-02-13T00:58:38.086Z,9.77
2024-02-13T01:01:06.821Z,9.78
2024-02-13T01:03:37.511Z,9.76
2024-02-13T01:06:07.896Z,9.73
2024-02-13T01:08:36.018Z,9.73
2024-02-13T01:11:04.123Z,9.76
2024-02-13T01:13:33.272Z,9.74
2024-02-13T01:16:04.206Z,9.76
2024-02-13T01:18:32.243Z,9.78
2024-02-13T01:21:00.269Z,9.76
2024-02-13T01:23:29.717Z,9.70
2024-02-13T01:26:00.402Z,9.61
2024-02-13T01:28:28.357Z,9.53
2024-02-13T01:30:59.373Z,9.44
2024-02-13T01:33:27.562Z,9.43
2024-02-13T01:35:56.045Z,9.43
2024-02-13T01:38:24.259Z,9.49
2024-02-13T01:40:53.769Z,9.47
2024-02-13T01:43:22.766Z,9.28
2024-02-13T01:45:50.918Z,9.20
2024-02-13T01:48:19.541Z,9.14
2024-02-13T01:50:48.463Z,9.09
2024-02-13T01:53:16.925Z,9.08
2024-02-13T01:55:45.275Z,9.06
2024-02-13T01:58:16.601Z,9.05
2024-02-13T02:00:45.272Z,9.05
2024-02-13T02:03:15.865Z,9.07
2024-02-13T02:05:44.042Z,9.02
2024-02-13T02:08:21.486Z,9.02
2024-02-13T02:10:50.053Z,9.01
2024-02-13T02:13:19.605Z,9.04
2024-02-13T02:15:58.309Z,8.99
2024-02-13T02:18:27.455Z,8.96
2024-02-13T02:20:55.720Z,8.99
2024-02-13T02:23:23.852Z,8.97
2024-02-13T02:25:55.062Z,8.97
2024-02-13T02:28:44.495Z,8.90
2024-02-13T02:31:16.737Z,8.87
2024-02-13T02:33:47.407Z,8.89
2024-02-13T02:36:15.702Z,8.88
2024-02-13T02:38:43.706Z,8.90
2024-02-13T02:41:13.036Z,8.85
2024-02-13T02:43:42.352Z,8.84
2024-02-13T02:46:10.839Z,8.81
2024-02-13T02:48:39.275Z,8.85
2024-02-13T02:51:07.365Z,8.81
2024-02-13T02:53:35.292Z,8.79
2024-02-13T02:56:03.637Z,8.74
2024-02-13T02:58:32.875Z,8.72
2024-02-13T03:01:00.879Z,8.72
2024-02-13T03:03:28.973Z,8.73
2024-02-13T03:05:57.976Z,8.66
2024-02-13T03:08:25.995Z,8.63
2024-02-13T03:10:54.148Z,8.61
2024-02-13T03:13:22.432Z,8.63
2024-02-13T03:15:51.945Z,8.65
2024-02-13T03:18:20.261Z,8.67
2024-02-13T03:20:48.421Z,8.67
2024-02-13T03:23:17.254Z,8.65
2024-02-13T03:25:45.285Z,8.63
2024-02-13T03:28:33.157Z,8.61
2024-02-13T03:31:02.396Z,8.60
2024-02-13T03:33:30.470Z,8.56
2024-02-13T03:35:58.531Z,8.53
2024-02-13T03:38:26.538Z,8.49
2024-02-13T03:40:54.512Z,8.51
2024-02-13T03:43:23.760Z,8.53
2024-02-13T03:45:51.711Z,8.55
2024-02-13T03:48:22.231Z,8.59
2024-02-13T03:50:50.280Z,8.54
2024-02-13T03:53:18.191Z,8.58
2024-02-13T03:55:46.138Z,8.53
2024-02-13T03:58:16.639Z,8.51
2024-02-13T04:00:45.532Z,8.50
2024-02-13T04:03:13.539Z,8.49
2024-02-13T04:05:44.242Z,8.43
2024-02-13T04:08:12.254Z,8.49
2024-02-13T04:10:40.758Z,8.50
2024-02-13T04:13:13.277Z,8.41
2024-02-13T04:15:41.391Z,8.53
2024-02-13T04:18:09.810Z,8.54
2024-02-13T04:20:40.410Z,8.58
2024-02-13T04:23:09.954Z,8.60
2024-02-13T04:25:37.951Z,8.58
2024-02-13T04:28:06.282Z,8.53
2024-02-13T04:30:41.684Z,8.51
2024-02-13T04:33:11.148Z,8.48
2024-02-13T04:35:39.430Z,8.48
2024-02-13T04:38:09.024Z,8.43
2024-02-13T04:40:38.088Z,8.49
2024-02-13T04:43:22.335Z,8.45
2024-02-13T04:45:50.430Z,8.46
2024-02-13T04:48:19.606Z,8.45
2024-02-13T04:50:47.703Z,8.39
2024-02-13T04:53:21.854Z,8.37
2024-02-13T04:55:49.890Z,8.27
2024-02-13T04:58:21.286Z,8.21
2024-02-13T05:00:52.925Z,8.16
2024-02-13T05:03:28.996Z,8.09
2024-02-13T05:06:14.527Z,8.10
2024-02-13T05:08:44.832Z,8.11
2024-02-13T05:11:14.701Z,8.19
2024-02-13T05:13:42.736Z,8.19
2024-02-13T05:16:11.218Z,8.21
2024-02-13T05:18:39.929Z,8.21
2024-02-13T05:21:09.627Z,8.21
2024-02-13T05:23:39.545Z,8.18
2024-02-13T05:26:09.712Z,8.20
2024-02-13T05:28:38.672Z,8.25
2024-02-13T05:31:07.191Z,8.22
2024-02-13T05:33:35.850Z,8.17
2024-02-13T05:36:05.152Z,8.19
2024-02-13T05:38:39.042Z,8.21
2024-02-13T05:41:08.551Z,8.19
2024-02-13T05:43:36.442Z,8.18
2024-02-13T05:46:04.541Z,8.19
2024-02-13T05:48:32.915Z,8.17
2024-02-13T05:51:00.901Z,8.15
2024-02-13T05:53:29.957Z,8.13
2024-02-13T05:55:58.006Z,8.14
2024-02-13T05:58:29.557Z,8.16
2024-02-13T06:00:59.157Z,8.13
2024-02-13T06:03:27.239Z,8.08
2024-02-13T06:05:56.409Z,8.05
2024-02-13T06:08:25.095Z,8.10
2024-02-13T06:10:53.115Z,8.10
2024-02-13T06:13:21.070Z,8.10
2024-02-13T06:15:50.674Z,8.06
2024-02-13T06:18:19.136Z,8.03
2024-02-13T06:20:47.282Z,8.03
2024-02-13T06:23:15.326Z,8.03
2024-02-13T06:25:43.445Z,8.05
2024-02-13T06:28:11.415Z,8.06
2024-02-13T06:30:40.581Z,8.09
2024-02-13T06:33:10.039Z,8.03
2024-02-13T06:35:38.123Z,7.98
2024-02-13T06:38:20.675Z,7.96
2024-02-13T06:40:48.630Z,7.98
2024-02-13T06:43:18.184Z,7.98
2024-02-13T06:45:46.181Z,7.92
2024-02-13T06:48:16.043Z,7.96
2024-02-13T06:50:44.570Z,7.96
2024-02-13T06:53:12.588Z,8.00
2024-02-13T06:55:40.497Z,8.00
2024-02-13T06:58:09.908Z,7.98
2024-02-13T07:00:37.864Z,8.06
2024-02-13T07:03:06.246Z,8.08
2024-02-13T07:05:35.892Z,8.10
2024-02-13T07:08:03.973Z,8.11
2024-02-13T07:10:32.133Z,8.14
2024-02-13T07:13:12.342Z,8.09
2024-02-13T07:15:40.395Z,8.04
2024-02-13T07:18:09.437Z,7.98
2024-02-13T07:20:38.869Z,7.97
2024-02-13T07:23:06.841Z,7.95
2024-02-13T07:25:35.680Z,8.03
2024-02-13T07:28:03.756Z,7.99
2024-02-13T07:30:31.767Z,7.99
2024-02-13T07:33:00.272Z,7.96
2024-02-13T07:35:29.789Z,8.00
2024-02-13T07:38:05.712Z,8.07
2024-02-13T07:40:33.703Z,8.10
2024-02-13T07:43:01.638Z,8.16
2024-02-13T07:45:30.049Z,8.30
2024-02-13T07:48:07.371Z,8.38
2024-02-13T07:50:36.403Z,8.44
2024-02-13T07:53:08.019Z,8.48
2024-02-13T07:55:36.324Z,8.52
2024-02-13T07:58:04.586Z,8.59
2024-02-13T08:00:35.036Z,8.65
2024-02-13T08:03:03.607Z,8.77
2024-02-13T08:05:34.712Z,8.87
2024-02-13T08:08:03.676Z,8.94
2024-02-13T08:10:32.982Z,8.93
2024-02-13T08:13:00.952Z,9.16
2024-02-13T08:15:30.568Z,9.13
2024-02-13T08:18:00.008Z,9.33
2024-02-13T08:20:28.680Z,9.44
2024-02-13T08:22:56.694Z,9.48
2024-02-13T08:25:24.609Z,9.54
2024-02-13T08:27:53.886Z,9.59
2024-02-13T08:30:21.883Z,9.42
2024-02-13T08:32:49.925Z,9.30
2024-02-13T08:35:20.105Z,9.20
2024-02-13T08:37:51.908Z,9.16
2024-02-13T08:40:20.602Z,9.18
2024-02-13T08:42:48.700Z,9.18
2024-02-13T08:45:18.157Z,9.24
2024-02-13T08:47:56.294Z,9.24
2024-02-13T08:50:24.554Z,9.32
2024-02-13T08:52:52.717Z,9.41
2024-02-13T08:55:20.683Z,9.45
2024-02-13T08:57:48.821Z,9.42
2024-02-13T09:00:19.243Z,9.44
2024-02-13T09:03:00.106Z,9.43
2024-02-13T09:05:28.409Z,9.33
2024-02-13T09:07:56.457Z,9.34
2024-02-13T09:10:24.411Z,9.36
2024-02-13T09:12:52.412Z,9.24
2024-02-13T09:15:21.831Z,9.13
2024-02-13T09:17:50.416Z,9.11
2024-02-13T09:20:22.915Z,9.06
2024-02-13T09:22:51.712Z,9.02
2024-02-13T09:25:21.601Z,9.08
2024-02-13T09:27:49.848Z,9.19
2024-02-13T09:30:19.086Z,9.19
2024-02-13T09:32:50.424Z,9.08
2024-02-13T09:35:18.896Z,9.02
2024-02-13T09:37:51.437Z,9.02
2024-02-13T09:40:21.281Z,9.06
2024-02-13T09:42:50.766Z,9.15
2024-02-13T09:45:19.054Z,9.14
2024-02-13T09:47:51.408Z,9.25
2024-02-13T09:50:19.434Z,9.35
2024-02-13T09:52:48.470Z,9.40
2024-02-13T09:55:17.056Z,9.40
2024-02-13T09:57:46.711Z,9.42
2024-02-13T10:00:17.938Z,9.51
2024-02-13T10:02:49.666Z,9.64
2024-02-13T10:05:19.173Z,9.65
2024-02-13T10:07:47.552Z,9.63
2024-02-13T10:10:16.124Z,9.80
2024-02-13T10:12:53.314Z,9.80
2024-02-13T10:15:21.466Z,9.78
2024-02-13T10:17:52.726Z,9.83
2024-02-13T10:20:21.162Z,9.97
2024-02-13T10:22:50.112Z,9.99
2024-02-13T10:25:25.041Z,9.93
2024-02-13T10:27:54.749Z,9.87
2024-02-13T10:30:24.585Z,9.78
2024-02-13T10:32:54.236Z,9.69
2024-02-13T10:35:23.484Z,9.63
2024-02-13T10:37:53.580Z,9.59
2024-02-13T10:40:24.031Z,9.55
2024-02-13T10:42:52.624Z,9.45
2024-02-13T10:45:24.315Z,9.59
2024-02-13T10:48:04.957Z,9.55
2024-02-13T10:50:33.679Z,9.62
2024-02-13T10:53:04.843Z,9.71
2024-02-13T10:55:34.952Z,9.78
2024-02-13T10:58:07.372Z,9.84
2024-02-13T11:00:38.591Z,9.79
2024-02-13T11:03:08.737Z,9.84
2024-02-13T11:05:37.263Z,9.91
2024-02-13T11:08:07.607Z,9.80
2024-02-13T11:10:36.679Z,9.82
2024-02-13T11:13:06.637Z,9.85
2024-02-13T11:15:36.283Z,9.77
2024-02-13T11:18:14.570Z,9.66
2024-02-13T11:20:44.495Z,9.60
2024-02-13T11:23:34.777Z,9.48
2024-02-13T11:26:03.352Z,9.43
2024-02-13T11:28:34.574Z,9.29
2024-02-13T11:31:13.225Z,9.40
2024-02-13T11:34:02.322Z,9.54
2024-02-13T11:36:31.663Z,9.59
2024-02-13T11:39:04.198Z,9.59
2024-02-13T11:41:32.653Z,9.63
2024-02-13T11:44:09.178Z,9.75
2024-02-13T11:46:40.310Z,9.77
2024-02-13T11:49:11.981Z,9.75
2024-02-13T11:51:40.852Z,9.82
2024-02-13T11:54:10.711Z,9.87
2024-02-13T11:56:40.204Z,9.91
2024-02-13T11:59:08.602Z,9.89
2024-02-13T12:01:38.873Z,9.96
2024-02-13T12:04:18.686Z,9.92
2024-02-13T12:06:47.151Z,9.91
2024-02-13T12:09:16.447Z,9.87
2024-02-13T12:11:45.881Z,9.89
2024-02-13T12:14:14.852Z,9.92
2024-02-13T12:16:43.721Z,10.03
2024-02-13T12:19:11.981Z,10.14
2024-02-13T12:21:41.430Z,10.30
2024-02-13T12:24:12.643Z,10.25
2024-02-13T12:26:43.789Z,10.15
2024-02-13T12:29:16.463Z,10.08
2024-02-13T12:31:45.225Z,10.04
2024-02-13T12:34:17.667Z,9.98
2024-02-13T12:36:47.230Z,9.90
2024-02-13T12:39:21.528Z,9.85
2024-02-13T12:41:52.580Z,9.87
2024-02-13T12:44:21.687Z,9.82
2024-02-13T12:46:52.396Z,9.89
2024-02-13T12:49:23.786Z,9.95
2024-02-13T12:51:53.621Z,9.88
2024-02-13T12:54:23.307Z,9.88
2024-02-13T12:56:53.945Z,9.96
2024-02-13T12:59:23.022Z,9.95
2024-02-13T13:01:52.040Z,9.80
2024-02-13T13:04:22.449Z,9.74
2024-02-13T13:06:52.357Z,9.63
2024-02-13T13:09:27.509Z,9.63
2024-02-13T13:12:00.066Z,9.56
2024-02-13T13:14:29.300Z,9.51
2024-02-13T13:16:57.938Z,9.47
2024-02-13T13:19:28.387Z,9.49
2024-02-13T13:21:57.252Z,9.47
2024-02-13T13:24:28.039Z,9.43
2024-02-13T13:26:56.233Z,9.42
2024-02-13T13:29:24.681Z,9.40
2024-02-13T13:31:52.896Z,9.43
2024-02-13T13:34:24.254Z,9.26
2024-02-13T13:36:54.345Z,9.26
2024-02-13T13:39:30.202Z,9.24
2024-02-13T13:42:09.679Z,9.28
2024-02-13T13:44:38.455Z,9.30
2024-02-13T13:47:06.778Z,9.33
2024-02-13T13:49:36.434Z,9.30
2024-02-13T13:52:04.635Z,9.36
2024-02-13T13:54:32.501Z,9.40
2024-02-13T13:57:01.932Z,9.43
2024-02-13T13:59:29.900Z,9.49
2024-02-13T14:01:57.914Z,9.44
2024-02-13T14:04:26.462Z,9.35
2024-02-13T14:06:54.537Z,9.30
2024-02-13T14:09:22.741Z,9.29
2024-02-13T14:11:53.173Z,9.29
2024-02-13T14:14:22.969Z,9.15
2024-02-13T14:16:51.098Z,9.06
2024-02-13T14:19:19.101Z,8.95
2024-02-13T14:21:47.144Z,8.94
2024-02-13T14:24:17.137Z,8.86
2024-02-13T14:26:45.141Z,8.80
2024-02-13T14:29:14.205Z,8.87
2024-02-13T14:31:43.634Z,8.91
2024-02-13T14:34:12.255Z,8.89
2024-02-13T14:36:42.884Z,8.93
2024-02-13T14:39:18.742Z,8.98
2024-02-13T14:41:50.688Z,8.91
2024-02-13T14:44:19.656Z,8.98
2024-02-13T14:46:48.991Z,8.92
2024-02-13T14:49:16.996Z,8.99
2024-02-13T14:51:45.631Z,9.02
2024-02-13T14:54:14.634Z,9.04
2024-02-13T14:56:43.126Z,9.09
2024-02-13T14:59:12.456Z,9.14
2024-02-13T15:01:40.957Z,9.03
2024-02-13T15:04:10.387Z,9.09
2024-02-13T15:06:38.680Z,9.08
2024-02-13T15:09:11.273Z,9.04
2024-02-13T15:11:40.363Z,9.05
2024-02-13T15:14:08.986Z,9.04
2024-02-13T15:16:36.919Z,9.06
2024-02-13T15:19:06.554Z,9.17
2024-02-13T15:21:36.075Z,9.29
2024-02-13T15:24:05.451Z,9.23
2024-02-13T15:26:34.500Z,9.29
2024-02-13T15:29:02.528Z,9.32
2024-02-13T15:31:30.988Z,9.26
2024-02-13T15:34:06.503Z,9.20
2024-02-13T15:36:49.719Z,9.20
2024-02-13T15:39:35.212Z,9.12
2024-02-13T15:42:20.872Z,9.04
2024-02-13T15:45:06.202Z,9.05
2024-02-13T15:47:35.385Z,8.99
2024-02-13T15:50:06.628Z,9.05
2024-02-13T15:52:36.646Z,9.00
2024-02-13T15:55:04.712Z,8.91
2024-02-13T15:57:36.256Z,8.92
2024-02-13T16:00:08.238Z,8.87
2024-02-13T16:02:40.573Z,8.80
2024-02-13T16:05:09.652Z,8.77
2024-02-13T16:07:38.927Z,8.75
2024-02-13T16:10:10.944Z,8.74
2024-02-13T16:12:39.930Z,8.56
2024-02-13T16:15:09.768Z,8.68
2024-02-13T16:17:38.336Z,8.70
2024-02-13T16:20:07.407Z,8.67
2024-02-13T16:22:36.832Z,8.65
2024-02-13T16:25:07.539Z,8.62
2024-02-13T16:27:36.210Z,8.55
2024-02-13T16:30:04.503Z,8.57
2024-02-13T16:32:40.456Z,8.56
2024-02-13T16:35:10.468Z,8.58
2024-02-13T16:37:41.843Z,8.62
2024-02-13T16:40:16.139Z,8.63
2024-02-13T16:42:44.738Z,8.66
2024-02-13T16:45:14.304Z,8.65
2024-02-13T16:47:42.757Z,8.74
2024-02-13T16:50:13.392Z,8.72
2024-02-13T16:52:41.552Z,8.68
2024-02-13T16:55:10.315Z,8.64
2024-02-13T16:57:42.510Z,8.65
2024-02-13T17:00:12.533Z,8.63
2024-02-13T17:02:40.877Z,8.65
2024-02-13T17:05:12.307Z,8.62
2024-02-13T17:07:40.940Z,8.63
2024-02-13T17:10:10.901Z,8.66
2024-02-13T17:12:41.025Z,8.67
2024-02-13T17:15:11.014Z,8.62
2024-02-13T17:17:40.185Z,8.64
2024-02-13T17:20:12.311Z,8.61
2024-02-13T17:22:41.612Z,8.62
2024-02-13T17:25:11.019Z,8.68
2024-02-13T17:27:42.328Z,8.73
2024-02-13T17:30:13.456Z,8.78
2024-02-13T17:32:54.260Z,8.73
2024-02-13T17:35:22.272Z,8.64
2024-02-13T17:37:50.196Z,8.65
2024-02-13T17:40:20.209Z,8.62
2024-02-13T17:42:49.857Z,8.63
2024-02-13T17:45:17.926Z,8.58
2024-02-13T17:47:49.469Z,8.56
2024-02-13T17:50:17.698Z,8.49
2024-02-13T17:52:45.641Z,8.50
2024-02-13T17:55:17.612Z,8.40
2024-02-13T17:57:46.613Z,8.27
2024-02-13T18:00:21.143Z,8.27
2024-02-13T18:02:49.251Z,8.46
2024-02-13T18:05:17.342Z,8.49
2024-02-13T18:08:07.110Z,8.44
2024-02-13T18:10:35.729Z,8.41
2024-02-13T18:13:04.892Z,8.38
2024-02-13T18:15:34.139Z,8.35
2024-02-13T18:18:02.157Z,8.28
2024-02-13T18:20:30.687Z,8.37
2024-02-13T18:22:58.740Z,8.42
2024-02-13T18:25:26.653Z,8.38
2024-02-13T18:27:54.567Z,8.38
2024-02-13T18:30:22.846Z,8.44
2024-02-13T18:32:52.307Z,8.45
2024-02-13T18:35:20.431Z,8.51
2024-02-13T18:37:50.285Z,8.51
2024-02-13T18:40:19.294Z,8.45
2024-02-13T18:42:47.188Z,8.40
2024-02-13T18:45:15.178Z,8.40
2024-02-13T18:47:45.668Z,8.44
2024-02-13T18:50:17.857Z,8.38
2024-02-13T18:52:46.242Z,8.40
2024-02-13T18:55:14.186Z,8.36
2024-02-13T18:57:42.432Z,8.35
2024-02-13T19:00:11.604Z,8.29
2024-02-13T19:02:39.831Z,8.24
2024-02-13T19:05:08.914Z,8.18
2024-02-13T19:07:50.120Z,8.13
2024-02-13T19:10:20.018Z,8.09
2024-02-13T19:12:47.985Z,8.13
2024-02-13T19:15:17.955Z,8.13
2024-02-13T19:17:46.043Z,8.07
2024-02-13T19:20:15.776Z,8.06
2024-02-13T19:22:43.911Z,8.10
2024-02-13T19:25:13.951Z,8.08
2024-02-13T19:27:42.107Z,8.07
2024-02-13T19:30:12.263Z,8.05
2024-02-13T19:32:59.734Z,8.06
2024-02-13T19:35:28.269Z,8.03
2024-02-13T19:37:56.215Z,8.04
2024-02-13T19:40:25.573Z,8.02
2024-02-13T19:42:59.159Z,7.99
2024-02-13T19:45:27.152Z,7.95
2024-02-13T19:48:10.077Z,7.90
2024-02-13T19:50:58.437Z,7.87
2024-02-13T19:53:46.508Z,7.89
2024-02-13T19:56:35.844Z,7.83
2024-02-13T19:59:23.757Z,7.75
2024-02-13T20:02:17.052Z,7.75
2024-02-13T20:05:06.587Z,7.71
2024-02-13T20:07:54.521Z,7.69
2024-02-13T20:10:22.713Z,7.64
2024-02-13T20:12:52.032Z,7.60
2024-02-13T20:15:21.568Z,7.59
2024-02-13T20:17:49.618Z,7.53
2024-02-13T20:20:17.626Z,7.50
2024-02-13T20:22:47.241Z,7.45
2024-02-13T20:25:15.715Z,7.41
2024-02-13T20:27:45.080Z,7.37
2024-02-13T20:30:15.674Z,7.37
2024-02-13T20:32:46.430Z,7.37
2024-02-13T20:35:14.861Z,7.25
2024-02-13T20:37:43.754Z,7.35
2024-02-13T20:40:15.823Z,7.38
2024-02-13T20:42:49.909Z,7.36
2024-02-13T20:45:23.517Z,7.34
2024-02-13T20:47:53.532Z,7.27
2024-02-13T20:50:22.562Z,7.32
2024-02-13T20:52:50.645Z,7.25
2024-02-13T20:55:20.210Z,7.23
2024-02-13T20:57:49.265Z,7.21
2024-02-13T21:00:19.589Z,7.21
2024-02-13T21:02:49.150Z,7.18
2024-02-13T21:05:17.516Z,7.16
2024-02-13T21:07:50.087Z,7.10
2024-02-13T21:10:20.376Z,7.08
2024-02-13T21:12:51.405Z,7.08
2024-02-13T21:15:20.949Z,7.03
2024-02-13T21:18:07.229Z,7.06
2024-02-13T21:20:43.092Z,6.99
2024-02-13T21:23:29.055Z,6.94
2024-02-13T21:25:57.664Z,6.97
2024-02-13T21:28:26.380Z,6.98
2024-02-13T21:30:58.101Z,6.94
2024-02-13T21:33:28.909Z,6.91
2024-02-13T21:35:59.568Z,6.89
2024-02-13T21:38:27.766Z,6.87
2024-02-13T21:40:55.925Z,6.80
2024-02-13T21:43:25.304Z,6.73
2024-02-13T21:45:53.756Z,6.69
2024-02-13T21:48:23.244Z,6.63
2024-02-13T21:50:51.550Z,6.59
2024-02-13T21:53:19.604Z,6.58
2024-02-13T21:55:47.500Z,6.57
2024-02-13T21:58:17.793Z,6.64
2024-02-13T22:00:45.945Z,6.72
2024-02-13T22:03:13.977Z,6.79
2024-02-13T22:05:43.407Z,6.93
2024-02-13T22:08:11.403Z,7.00
2024-02-13T22:10:40.146Z,7.04
2024-02-13T22:13:09.689Z,6.97
2024-02-13T22:15:37.869Z,6.91
2024-02-13T22:18:06.159Z,6.93
2024-02-13T22:20:37.970Z,6.94
2024-02-13T22:23:09.800Z,6.94
2024-02-13T22:25:38.002Z,6.83
2024-02-13T22:28:07.091Z,6.94
2024-02-13T22:30:35.875Z,6.89
2024-02-13T22:33:18.098Z,6.80
2024-02-13T22:35:46.241Z,6.72
2024-02-13T22:38:15.646Z,6.73
2024-02-13T22:40:43.601Z,6.72
2024-02-13T22:43:11.547Z,6.83
2024-02-13T22:45:39.491Z,6.93
2024-02-13T22:48:07.998Z,6.81
2024-02-13T22:50:37.823Z,6.78
2024-02-13T22:53:06.262Z,6.62
2024-02-13T22:55:36.328Z,6.59
2024-02-13T22:58:04.365Z,6.57
2024-02-13T23:00:44.748Z,6.47
2024-02-13T23:03:16.229Z,6.45
2024-02-13T23:05:51.611Z,6.53
2024-02-13T23:08:19.905Z,6.66
2024-02-13T23:10:50.073Z,6.78
2024-02-13T23:13:20.031Z,6.83
2024-02-13T23:15:49.162Z,6.85
2024-02-13T23:18:19.156Z,6.91
2024-02-13T23:20:47.523Z,6.89
2024-02-13T23:23:16.541Z,6.88
2024-02-13T23:25:44.730Z,6.89
2024-02-13T23:28:15.145Z,6.86
2024-02-13T23:30:44.328Z,6.84
2024-02-13T23:33:13.318Z,6.74
2024-02-13T23:35:42.675Z,6.74
2024-02-13T23:38:10.609Z,6.71
2024-02-13T23:40:39.000Z,6.71
2024-02-13T23:43:07.758Z,6.67
2024-02-13T23:45:37.224Z,6.74
2024-02-13T23:48:05.722Z,6.73
2024-02-13T23:50:34.083Z,6.74
2024-02-13T23:53:02.096Z,6.71
2024-02-13T23:55:30.046Z,6.69
2024-02-13T23:57:58.007Z,6.66
